sensor_id;sensor_type;location;lat;lon;timestamp;temperature;humidity
26262;DHT22;13988;52.446;13.280;2023-12-20T00:01:47;6.70;99.90
26262;DHT22;13988;52.446;13.280;2023-12-20T00:04:13;6.70;99.90
26262;DHT22;13988;52.446;13.280;2023-12-20T00:06:38;6.70;99.90
26262;DHT22;13988;52.446;13.280;2023-12-20T00:09:04;6.70;99.90
26262;DHT22;13988;52.446;13.280;2023-12-20T00:11:29;6.70;99.90
26262;DHT22;13988;52.446;13.280;2023-12-20T00:13:55;6.60;99.90
26262;DHT22;13988;52.446;13.280;2023-12-20T00:16:21;6.60;99.90
26262;DHT22;13988;52.446;13.280;2023-12-20T00:18:46;6.70;99.90
26262;DHT22;13988;52.446;13.280;2023-12-20T00:21:12;6.70;99.90
26262;DHT22;13988;52.446;13.280;2023-12-20T00:23:37;6.70;99.90
26262;DHT22;13988;52.446;13.280;2023-12-20T00:26:03;6.70;99.90
26262;DHT22;13988;52.446;13.280;2023-12-20T00:28:29;6.70;99.90
26262;DHT22;13988;52.446;13.280;2023-12-20T00:30:54;6.70;99.90
26262;DHT22;13988;52.446;13.280;2023-12-20T00:33:20;6.70;99.90
26262;DHT22;13988;52.446;13.280;2023-12-20T00:35:45;6.70;99.90
26262;DHT22;13988;52.446;13.280;2023-12-20T00:38:11;6.70;99.90
26262;DHT22;13988;52.446;13.280;2023-12-20T00:40:37;6.70;99.90
26262;DHT22;13988;52.446;13.280;2023-12-20T00:43:03;6.70;99.90
26262;DHT22;13988;52.446;13.280;2023-12-20T00:45:28;6.70;99.90
26262;DHT22;13988;52.446;13.280;2023-12-20T00:47:54;6.70;99.90
26262;DHT22;13988;52.446;13.280;2023-12-20T00:50:20;6.60;99.90
26262;DHT22;13988;52.446;13.280;2023-12-20T00:52:47;6.70;99.90
26262;DHT22;13988;52.446;13.280;2023-12-20T00:55:13;6.70;99.90
26262;DHT22;13988;52.446;13.280;2023-12-20T00:57:39;6.70;99.90
26262;DHT22;13988;52.446;13.280;2023-12-20T01:00:05;6.70;99.90
26262;DHT22;13988;52.446;13.280;2023-12-20T01:02:31;6.70;99.90
26262;DHT22;13988;52.446;13.280;2023-12-20T01:04:56;6.70;99.90
26262;DHT22;13988;52.446;13.280;2023-12-20T01:07:22;6.70;99.90
26262;DHT22;13988;52.446;13.280;2023-12-20T01:09:48;6.70;99.90
26262;DHT22;13988;52.446;13.280;2023-12-20T01:12:13;6.70;99.90
26262;DHT22;13988;52.446;13.280;2023-12-20T01:14:39;6.70;99.90
26262;DHT22;13988;52.446;13.280;2023-12-20T01:17:05;6.70;99.90
26262;DHT22;13988;52.446;13.280;2023-12-20T01:19:30;6.70;99.90
26262;DHT22;13988;52.446;13.280;2023-12-20T01:21:56;6.70;99.90
26262;DHT22;13988;52.446;13.280;2023-12-20T01:24:21;6.70;99.90
26262;DHT22;13988;52.446;13.280;2023-12-20T01:26:47;6.70;99.90
26262;DHT22;13988;52.446;13.280;2023-12-20T01:29:13;6.70;99.90
26262;DHT22;13988;52.446;13.280;2023-12-20T01:31:40;6.70;99.90
26262;DHT22;13988;52.446;13.280;2023-12-20T01:34:06;6.70;99.90
26262;DHT22;13988;52.446;13.280;2023-12-20T01:36:31;6.80;99.90
26262;DHT22;13988;52.446;13.280;2023-12-20T01:38:57;6.70;99.90
26262;DHT22;13988;52.446;13.280;2023-12-20T01:41:23;6.70;99.90
26262;DHT22;13988;52.446;13.280;2023-12-20T01:43:49;6.70;99.90
26262;DHT22;13988;52.446;13.280;2023-12-20T01:46:15;6.70;99.90
26262;DHT22;13988;52.446;13.280;2023-12-20T01:48:41;6.70;99.90
26262;DHT22;13988;52.446;13.280;2023-12-20T01:51:07;6.70;99.90
26262;DHT22;13988;52.446;13.280;2023-12-20T01:53:33;6.70;99.90
26262;DHT22;13988;52.446;13.280;2023-12-20T01:55:59;6.70;99.90
26262;DHT22;13988;52.446;13.280;2023-12-20T01:58:26;6.70;99.90
26262;DHT22;13988;52.446;13.280;2023-12-20T02:00:52;6.70;99.90
26262;DHT22;13988;52.446;13.280;2023-12-20T02:03:18;6.70;99.90
26262;DHT22;13988;52.446;13.280;2023-12-20T02:05:44;6.70;99.90
26262;DHT22;13988;52.446;13.280;2023-12-20T02:08:11;6.70;99.90
26262;DHT22;13988;52.446;13.280;2023-12-20T02:10:36;6.80;99.90
26262;DHT22;13988;52.446;13.280;2023-12-20T02:13:03;6.80;99.90
26262;DHT22;13988;52.446;13.280;2023-12-20T02:15:29;6.80;99.90
26262;DHT22;13988;52.446;13.280;2023-12-20T02:17:55;6.80;99.90
26262;DHT22;13988;52.446;13.280;2023-12-20T02:20:21;6.80;99.90
26262;DHT22;13988;52.446;13.280;2023-12-20T02:22:46;6.70;99.90
26262;DHT22;13988;52.446;13.280;2023-12-20T02:25:12;6.80;99.90
26262;DHT22;13988;52.446;13.280;2023-12-20T02:27:38;6.70;99.90
26262;DHT22;13988;52.446;13.280;2023-12-20T02:30:05;6.80;99.90
26262;DHT22;13988;52.446;13.280;2023-12-20T02:32:31;6.80;99.90
26262;DHT22;13988;52.446;13.280;2023-12-20T02:34:57;6.70;99.90
26262;DHT22;13988;52.446;13.280;2023-12-20T02:37:23;6.80;99.90
26262;DHT22;13988;52.446;13.280;2023-12-20T02:39:49;6.70;99.90
26262;DHT22;13988;52.446;13.280;2023-12-20T02:42:15;6.70;99.90
26262;DHT22;13988;52.446;13.280;2023-12-20T02:44:40;6.70;99.90
26262;DHT22;13988;52.446;13.280;2023-12-20T02:47:06;6.70;99.90
26262;DHT22;13988;52.446;13.280;2023-12-20T02:49:32;6.70;99.90
26262;DHT22;13988;52.446;13.280;2023-12-20T02:51:57;6.70;99.90
26262;DHT22;13988;52.446;13.280;2023-12-20T02:54:23;6.80;99.90
26262;DHT22;13988;52.446;13.280;2023-12-20T02:56:49;6.80;99.90
26262;DHT22;13988;52.446;13.280;2023-12-20T02:59:14;6.70;99.90
26262;DHT22;13988;52.446;13.280;2023-12-20T03:01:44;6.80;99.90
26262;DHT22;13988;52.446;13.280;2023-12-20T03:04:10;6.70;99.90
26262;DHT22;13988;52.446;13.280;2023-12-20T03:06:36;6.80;99.90
26262;DHT22;13988;52.446;13.280;2023-12-20T03:09:01;6.70;99.90
26262;DHT22;13988;52.446;13.280;2023-12-20T03:11:27;6.70;99.90
26262;DHT22;13988;52.446;13.280;2023-12-20T03:13:53;6.70;99.90
26262;DHT22;13988;52.446;13.280;2023-12-20T03:16:19;6.70;99.90
26262;DHT22;13988;52.446;13.280;2023-12-20T03:18:45;6.70;99.90
26262;DHT22;13988;52.446;13.280;2023-12-20T03:21:10;6.70;99.90
26262;DHT22;13988;52.446;13.280;2023-12-20T03:23:36;6.70;99.90
26262;DHT22;13988;52.446;13.280;2023-12-20T03:26:01;6.70;99.90
26262;DHT22;13988;52.446;13.280;2023-12-20T03:28:27;6.70;99.90
26262;DHT22;13988;52.446;13.280;2023-12-20T03:30:53;6.70;99.90
26262;DHT22;13988;52.446;13.280;2023-12-20T03:33:19;6.60;99.90
26262;DHT22;13988;52.446;13.280;2023-12-20T03:35:44;6.60;99.90
26262;DHT22;13988;52.446;13.280;2023-12-20T03:38:10;6.60;99.90
26262;DHT22;13988;52.446;13.280;2023-12-20T03:40:36;6.60;99.90
26262;DHT22;13988;52.446;13.280;2023-12-20T03:43:01;6.60;99.90
26262;DHT22;13988;52.446;13.280;2023-12-20T03:45:27;6.60;99.90
26262;DHT22;13988;52.446;13.280;2023-12-20T03:47:53;6.60;99.90
26262;DHT22;13988;52.446;13.280;2023-12-20T03:50:23;6.60;99.90
26262;DHT22;13988;52.446;13.280;2023-12-20T03:52:49;6.60;99.90
26262;DHT22;13988;52.446;13.280;2023-12-20T03:55:16;6.60;99.90
26262;DHT22;13988;52.446;13.280;2023-12-20T03:57:42;6.60;99.90
26262;DHT22;13988;52.446;13.280;2023-12-20T04:00:08;6.50;99.90
26262;DHT22;13988;52.446;13.280;2023-12-20T04:02:39;6.60;99.90
26262;DHT22;13988;52.446;13.280;2023-12-20T04:05:05;6.50;99.90
26262;DHT22;13988;52.446;13.280;2023-12-20T04:07:31;6.50;99.90
26262;DHT22;13988;52.446;13.280;2023-12-20T04:09:57;6.50;99.90
26262;DHT22;13988;52.446;13.280;2023-12-20T04:12:23;6.50;99.90
26262;DHT22;13988;52.446;13.280;2023-12-20T04:14:48;6.40;99.90
26262;DHT22;13988;52.446;13.280;2023-12-20T04:17:15;6.40;99.90
26262;DHT22;13988;52.446;13.280;2023-12-20T04:19:44;6.40;99.90
26262;DHT22;13988;52.446;13.280;2023-12-20T04:22:10;6.30;99.90
26262;DHT22;13988;52.446;13.280;2023-12-20T04:24:35;6.30;99.90
26262;DHT22;13988;52.446;13.280;2023-12-20T04:27:01;6.30;99.90
26262;DHT22;13988;52.446;13.280;2023-12-20T04:29:27;6.20;99.90
26262;DHT22;13988;52.446;13.280;2023-12-20T04:31:53;6.20;99.90
26262;DHT22;13988;52.446;13.280;2023-12-20T04:34:18;6.10;99.90
26262;DHT22;13988;52.446;13.280;2023-12-20T04:36:45;6.00;99.90
26262;DHT22;13988;52.446;13.280;2023-12-20T04:39:12;6.00;99.90
26262;DHT22;13988;52.446;13.280;2023-12-20T04:41:38;5.90;99.90
26262;DHT22;13988;52.446;13.280;2023-12-20T04:44:05;5.90;99.90
26262;DHT22;13988;52.446;13.280;2023-12-20T04:46:31;5.90;99.90
26262;DHT22;13988;52.446;13.280;2023-12-20T04:48:57;5.90;99.90
26262;DHT22;13988;52.446;13.280;2023-12-20T04:51:22;5.90;99.90
26262;DHT22;13988;52.446;13.280;2023-12-20T04:53:48;5.80;99.90
26262;DHT22;13988;52.446;13.280;2023-12-20T04:56:14;5.80;99.90
26262;DHT22;13988;52.446;13.280;2023-12-20T04:58:39;5.70;99.90
26262;DHT22;13988;52.446;13.280;2023-12-20T05:01:09;5.60;99.90
26262;DHT22;13988;52.446;13.280;2023-12-20T05:03:35;5.60;99.90
26262;DHT22;13988;52.446;13.280;2023-12-20T05:06:01;5.60;99.90
26262;DHT22;13988;52.446;13.280;2023-12-20T05:08:26;5.50;99.90
26262;DHT22;13988;52.446;13.280;2023-12-20T05:10:54;5.50;99.90
26262;DHT22;13988;52.446;13.280;2023-12-20T05:13:20;5.50;99.90
26262;DHT22;13988;52.446;13.280;2023-12-20T05:15:46;5.50;99.90
26262;DHT22;13988;52.446;13.280;2023-12-20T05:18:12;5.50;99.90
26262;DHT22;13988;52.446;13.280;2023-12-20T05:20:38;5.40;99.90
26262;DHT22;13988;52.446;13.280;2023-12-20T05:23:04;5.40;99.90
26262;DHT22;13988;52.446;13.280;2023-12-20T05:25:29;5.40;99.90
26262;DHT22;13988;52.446;13.280;2023-12-20T05:27:55;5.40;99.90
26262;DHT22;13988;52.446;13.280;2023-12-20T05:30:21;5.30;99.90
26262;DHT22;13988;52.446;13.280;2023-12-20T05:32:47;5.30;99.90
26262;DHT22;13988;52.446;13.280;2023-12-20T05:35:13;5.30;99.90
26262;DHT22;13988;52.446;13.280;2023-12-20T05:37:38;5.30;99.90
26262;DHT22;13988;52.446;13.280;2023-12-20T05:40:04;5.20;99.90
26262;DHT22;13988;52.446;13.280;2023-12-20T05:42:30;5.20;99.90
26262;DHT22;13988;52.446;13.280;2023-12-20T05:44:56;5.10;99.90
26262;DHT22;13988;52.446;13.280;2023-12-20T05:47:21;5.20;99.90
26262;DHT22;13988;52.446;13.280;2023-12-20T05:49:47;5.10;99.90
26262;DHT22;13988;52.446;13.280;2023-12-20T05:52:12;5.00;99.90
26262;DHT22;13988;52.446;13.280;2023-12-20T05:54:38;5.00;99.90
26262;DHT22;13988;52.446;13.280;2023-12-20T05:57:04;5.00;99.90
26262;DHT22;13988;52.446;13.280;2023-12-20T05:59:29;5.00;99.90
26262;DHT22;13988;52.446;13.280;2023-12-20T06:01:55;4.90;99.90
26262;DHT22;13988;52.446;13.280;2023-12-20T06:04:21;4.90;99.90
26262;DHT22;13988;52.446;13.280;2023-12-20T06:06:46;4.90;99.90
26262;DHT22;13988;52.446;13.280;2023-12-20T06:09:12;4.80;99.90
26262;DHT22;13988;52.446;13.280;2023-12-20T06:11:38;4.80;99.90
26262;DHT22;13988;52.446;13.280;2023-12-20T06:14:03;4.80;99.90
26262;DHT22;13988;52.446;13.280;2023-12-20T06:16:29;4.80;99.90
26262;DHT22;13988;52.446;13.280;2023-12-20T06:18:54;4.70;99.90
26262;DHT22;13988;52.446;13.280;2023-12-20T06:21:20;4.70;99.90
26262;DHT22;13988;52.446;13.280;2023-12-20T06:23:46;4.70;99.90
26262;DHT22;13988;52.446;13.280;2023-12-20T06:26:11;4.80;99.90
26262;DHT22;13988;52.446;13.280;2023-12-20T06:28:37;4.80;99.90
26262;DHT22;13988;52.446;13.280;2023-12-20T06:31:03;4.80;99.90
26262;DHT22;13988;52.446;13.280;2023-12-20T06:33:29;4.80;99.90
26262;DHT22;13988;52.446;13.280;2023-12-20T06:35:56;4.80;99.90
26262;DHT22;13988;52.446;13.280;2023-12-20T06:38:22;4.80;99.90
26262;DHT22;13988;52.446;13.280;2023-12-20T06:40:48;4.80;99.90
26262;DHT22;13988;52.446;13.280;2023-12-20T06:43:13;4.80;99.90
26262;DHT22;13988;52.446;13.280;2023-12-20T06:45:39;4.80;99.90
26262;DHT22;13988;52.446;13.280;2023-12-20T06:48:05;4.80;99.90
26262;DHT22;13988;52.446;13.280;2023-12-20T06:50:31;4.80;99.90
26262;DHT22;13988;52.446;13.280;2023-12-20T06:52:56;4.80;99.90
26262;DHT22;13988;52.446;13.280;2023-12-20T06:55:22;4.80;99.90
26262;DHT22;13988;52.446;13.280;2023-12-20T06:57:48;4.90;99.90
26262;DHT22;13988;52.446;13.280;2023-12-20T07:00:14;4.90;99.90
26262;DHT22;13988;52.446;13.280;2023-12-20T07:02:40;4.90;99.90
26262;DHT22;13988;52.446;13.280;2023-12-20T07:05:06;4.90;99.90
26262;DHT22;13988;52.446;13.280;2023-12-20T07:07:32;4.90;99.90
26262;DHT22;13988;52.446;13.280;2023-12-20T07:09:57;4.90;99.90
26262;DHT22;13988;52.446;13.280;2023-12-20T07:12:23;5.00;99.90
26262;DHT22;13988;52.446;13.280;2023-12-20T07:14:48;5.10;99.90
26262;DHT22;13988;52.446;13.280;2023-12-20T07:17:14;5.00;99.90
26262;DHT22;13988;52.446;13.280;2023-12-20T07:19:41;5.00;99.90
26262;DHT22;13988;52.446;13.280;2023-12-20T07:22:07;5.00;99.90
26262;DHT22;13988;52.446;13.280;2023-12-20T07:24:33;5.00;99.90
26262;DHT22;13988;52.446;13.280;2023-12-20T07:27:02;5.00;99.90
26262;DHT22;13988;52.446;13.280;2023-12-20T07:29:27;5.10;99.90
26262;DHT22;13988;52.446;13.280;2023-12-20T07:31:54;5.10;99.90
26262;DHT22;13988;52.446;13.280;2023-12-20T07:34:20;5.10;99.90
26262;DHT22;13988;52.446;13.280;2023-12-20T07:36:46;5.10;99.90
26262;DHT22;13988;52.446;13.280;2023-12-20T07:39:12;5.10;99.90
26262;DHT22;13988;52.446;13.280;2023-12-20T07:41:38;5.10;99.90
26262;DHT22;13988;52.446;13.280;2023-12-20T07:44:04;5.10;99.90
26262;DHT22;13988;52.446;13.280;2023-12-20T07:46:30;5.10;99.90
26262;DHT22;13988;52.446;13.280;2023-12-20T07:48:56;5.10;99.90
26262;DHT22;13988;52.446;13.280;2023-12-20T07:51:21;5.10;99.90
26262;DHT22;13988;52.446;13.280;2023-12-20T07:53:47;5.20;99.90
26262;DHT22;13988;52.446;13.280;2023-12-20T07:56:19;5.20;99.90
26262;DHT22;13988;52.446;13.280;2023-12-20T07:58:46;5.10;99.90
26262;DHT22;13988;52.446;13.280;2023-12-20T08:01:13;5.20;99.90
26262;DHT22;13988;52.446;13.280;2023-12-20T08:03:39;5.20;99.90
26262;DHT22;13988;52.446;13.280;2023-12-20T08:06:04;5.20;99.90
26262;DHT22;13988;52.446;13.280;2023-12-20T08:08:30;5.20;99.90
26262;DHT22;13988;52.446;13.280;2023-12-20T08:10:56;5.20;99.90
26262;DHT22;13988;52.446;13.280;2023-12-20T08:13:24;5.20;99.90
26262;DHT22;13988;52.446;13.280;2023-12-20T08:15:52;5.10;99.90
26262;DHT22;13988;52.446;13.280;2023-12-20T08:18:18;5.20;99.90
26262;DHT22;13988;52.446;13.280;2023-12-20T08:20:43;5.20;99.90
26262;DHT22;13988;52.446;13.280;2023-12-20T08:23:09;5.20;99.90
26262;DHT22;13988;52.446;13.280;2023-12-20T08:25:35;5.20;99.90
26262;DHT22;13988;52.446;13.280;2023-12-20T08:28:02;5.20;99.90
26262;DHT22;13988;52.446;13.280;2023-12-20T08:30:28;5.20;99.90
26262;DHT22;13988;52.446;13.280;2023-12-20T08:32:55;5.20;99.90
26262;DHT22;13988;52.446;13.280;2023-12-20T08:35:20;5.20;99.90
26262;DHT22;13988;52.446;13.280;2023-12-20T08:37:46;5.20;99.90
26262;DHT22;13988;52.446;13.280;2023-12-20T08:40:12;5.30;99.90
26262;DHT22;13988;52.446;13.280;2023-12-20T08:42:37;5.30;99.90
26262;DHT22;13988;52.446;13.280;2023-12-20T08:45:03;5.30;99.90
26262;DHT22;13988;52.446;13.280;2023-12-20T08:47:30;5.40;99.90
26262;DHT22;13988;52.446;13.280;2023-12-20T08:49:55;5.40;99.90
26262;DHT22;13988;52.446;13.280;2023-12-20T08:52:23;5.40;99.90
26262;DHT22;13988;52.446;13.280;2023-12-20T08:54:50;5.50;99.90
26262;DHT22;13988;52.446;13.280;2023-12-20T08:57:19;5.50;99.90
26262;DHT22;13988;52.446;13.280;2023-12-20T08:59:46;5.40;99.90
26262;DHT22;13988;52.446;13.280;2023-12-20T09:02:12;5.50;99.90
26262;DHT22;13988;52.446;13.280;2023-12-20T09:04:38;5.50;99.90
26262;DHT22;13988;52.446;13.280;2023-12-20T09:07:03;5.60;99.90
26262;DHT22;13988;52.446;13.280;2023-12-20T09:09:29;5.70;99.90
26262;DHT22;13988;52.446;13.280;2023-12-20T09:11:56;5.70;99.90
26262;DHT22;13988;52.446;13.280;2023-12-20T09:14:21;5.70;99.90
26262;DHT22;13988;52.446;13.280;2023-12-20T09:16:47;5.70;99.90
26262;DHT22;13988;52.446;13.280;2023-12-20T09:19:13;5.60;99.90
26262;DHT22;13988;52.446;13.280;2023-12-20T09:21:38;5.60;99.90
26262;DHT22;13988;52.446;13.280;2023-12-20T09:24:04;5.70;99.90
26262;DHT22;13988;52.446;13.280;2023-12-20T09:26:29;5.60;99.90
26262;DHT22;13988;52.446;13.280;2023-12-20T09:28:55;5.60;99.90
26262;DHT22;13988;52.446;13.280;2023-12-20T09:31:21;5.70;99.90
26262;DHT22;13988;52.446;13.280;2023-12-20T09:33:47;5.70;99.90
26262;DHT22;13988;52.446;13.280;2023-12-20T09:36:13;5.70;99.90
26262;DHT22;13988;52.446;13.280;2023-12-20T09:38:39;5.80;99.90
26262;DHT22;13988;52.446;13.280;2023-12-20T09:41:05;5.90;99.90
26262;DHT22;13988;52.446;13.280;2023-12-20T09:43:32;5.80;99.90
26262;DHT22;13988;52.446;13.280;2023-12-20T09:46:03;5.80;99.90
26262;DHT22;13988;52.446;13.280;2023-12-20T09:48:31;5.80;99.90
26262;DHT22;13988;52.446;13.280;2023-12-20T09:50:58;5.90;99.90
26262;DHT22;13988;52.446;13.280;2023-12-20T09:53:25;5.90;99.90
26262;DHT22;13988;52.446;13.280;2023-12-20T09:55:58;6.00;99.90
26262;DHT22;13988;52.446;13.280;2023-12-20T09:58:25;6.00;99.90
26262;DHT22;13988;52.446;13.280;2023-12-20T10:00:52;6.00;99.90
26262;DHT22;13988;52.446;13.280;2023-12-20T10:03:23;6.00;99.90
26262;DHT22;13988;52.446;13.280;2023-12-20T10:05:53;6.00;99.90
26262;DHT22;13988;52.446;13.280;2023-12-20T10:08:21;6.00;99.90
26262;DHT22;13988;52.446;13.280;2023-12-20T10:10:47;6.00;99.90
26262;DHT22;13988;52.446;13.280;2023-12-20T10:13:13;6.10;99.90
26262;DHT22;13988;52.446;13.280;2023-12-20T10:15:38;6.00;99.90
26262;DHT22;13988;52.446;13.280;2023-12-20T10:18:05;6.00;99.90
26262;DHT22;13988;52.446;13.280;2023-12-20T10:20:31;6.10;99.90
26262;DHT22;13988;52.446;13.280;2023-12-20T10:22:58;6.10;99.90
26262;DHT22;13988;52.446;13.280;2023-12-20T10:25:24;6.00;99.90
26262;DHT22;13988;52.446;13.280;2023-12-20T10:30:35;6.10;99.90
26262;DHT22;13988;52.446;13.280;2023-12-20T10:33:01;6.10;99.90
26262;DHT22;13988;52.446;13.280;2023-12-20T10:35:27;6.10;99.90
26262;DHT22;13988;52.446;13.280;2023-12-20T10:37:55;6.10;99.90
26262;DHT22;13988;52.446;13.280;2023-12-20T10:40:22;6.10;99.90
26262;DHT22;13988;52.446;13.280;2023-12-20T10:42:48;6.20;99.90
26262;DHT22;13988;52.446;13.280;2023-12-20T10:45:14;6.20;99.90
26262;DHT22;13988;52.446;13.280;2023-12-20T10:47:44;6.30;99.90
26262;DHT22;13988;52.446;13.280;2023-12-20T10:50:11;6.30;99.90
26262;DHT22;13988;52.446;13.280;2023-12-20T10:52:37;6.30;99.90
26262;DHT22;13988;52.446;13.280;2023-12-20T10:55:04;6.30;99.90
26262;DHT22;13988;52.446;13.280;2023-12-20T10:57:30;6.30;99.90
26262;DHT22;13988;52.446;13.280;2023-12-20T11:00:00;6.30;99.90
26262;DHT22;13988;52.446;13.280;2023-12-20T11:02:32;6.40;99.90
26262;DHT22;13988;52.446;13.280;2023-12-20T11:07:58;6.30;99.90
26262;DHT22;13988;52.446;13.280;2023-12-20T11:10:42;6.30;99.90
26262;DHT22;13988;52.446;13.280;2023-12-20T11:16:10;6.20;99.90
26262;DHT22;13988;52.446;13.280;2023-12-20T11:18:36;6.20;99.90
26262;DHT22;13988;52.446;13.280;2023-12-20T11:21:04;6.20;99.90
26262;DHT22;13988;52.446;13.280;2023-12-20T11:23:32;6.30;99.90
26262;DHT22;13988;52.446;13.280;2023-12-20T11:26:02;6.30;99.90
26262;DHT22;13988;52.446;13.280;2023-12-20T11:28:28;6.30;99.90
26262;DHT22;13988;52.446;13.280;2023-12-20T11:30:56;6.20;99.90
26262;DHT22;13988;52.446;13.280;2023-12-20T11:33:36;6.10;99.90
26262;DHT22;13988;52.446;13.280;2023-12-20T11:36:02;6.10;99.90
26262;DHT22;13988;52.446;13.280;2023-12-20T11:38:38;6.10;99.90
26262;DHT22;13988;52.446;13.280;2023-12-20T11:41:07;6.10;99.90
26262;DHT22;13988;52.446;13.280;2023-12-20T11:43:36;6.10;99.90
26262;DHT22;13988;52.446;13.280;2023-12-20T11:46:06;6.10;99.90
26262;DHT22;13988;52.446;13.280;2023-12-20T11:48:37;6.20;99.90
26262;DHT22;13988;52.446;13.280;2023-12-20T11:51:08;6.20;99.90
26262;DHT22;13988;52.446;13.280;2023-12-20T11:53:34;6.20;99.90
26262;DHT22;13988;52.446;13.280;2023-12-20T11:56:00;6.20;99.90
26262;DHT22;13988;52.446;13.280;2023-12-20T11:58:28;6.20;99.90
26262;DHT22;13988;52.446;13.280;2023-12-20T12:00:55;6.20;99.90
26262;DHT22;13988;52.446;13.280;2023-12-20T12:03:21;6.10;99.90
26262;DHT22;13988;52.446;13.280;2023-12-20T12:05:49;6.20;99.90
26262;DHT22;13988;52.446;13.280;2023-12-20T12:08:16;6.20;99.90
26262;DHT22;13988;52.446;13.280;2023-12-20T12:10:43;6.20;99.90
26262;DHT22;13988;52.446;13.280;2023-12-20T12:13:09;6.20;99.90
26262;DHT22;13988;52.446;13.280;2023-12-20T12:15:36;6.20;99.90
26262;DHT22;13988;52.446;13.280;2023-12-20T12:18:02;6.30;99.90
26262;DHT22;13988;52.446;13.280;2023-12-20T12:20:27;6.30;99.90
26262;DHT22;13988;52.446;13.280;2023-12-20T12:23:06;6.30;99.90
26262;DHT22;13988;52.446;13.280;2023-12-20T12:25:34;6.30;99.90
26262;DHT22;13988;52.446;13.280;2023-12-20T12:28:01;6.30;99.90
26262;DHT22;13988;52.446;13.280;2023-12-20T12:30:27;6.30;99.90
26262;DHT22;13988;52.446;13.280;2023-12-20T12:32:53;6.20;99.90
26262;DHT22;13988;52.446;13.280;2023-12-20T12:35:20;6.20;99.90
26262;DHT22;13988;52.446;13.280;2023-12-20T12:37:46;6.20;99.90
26262;DHT22;13988;52.446;13.280;2023-12-20T12:40:13;6.10;99.90
26262;DHT22;13988;52.446;13.280;2023-12-20T12:42:39;6.10;99.90
26262;DHT22;13988;52.446;13.280;2023-12-20T12:45:06;6.00;99.90
26262;DHT22;13988;52.446;13.280;2023-12-20T12:47:33;6.00;99.90
26262;DHT22;13988;52.446;13.280;2023-12-20T12:49:59;6.00;99.90
26262;DHT22;13988;52.446;13.280;2023-12-20T12:52:25;6.00;99.90
26262;DHT22;13988;52.446;13.280;2023-12-20T12:54:52;5.90;99.90
26262;DHT22;13988;52.446;13.280;2023-12-20T12:57:18;5.90;99.90
26262;DHT22;13988;52.446;13.280;2023-12-20T12:59:45;5.90;99.90
26262;DHT22;13988;52.446;13.280;2023-12-20T13:02:12;5.90;99.90
26262;DHT22;13988;52.446;13.280;2023-12-20T13:04:39;5.90;99.90
26262;DHT22;13988;52.446;13.280;2023-12-20T13:07:05;5.90;99.90
26262;DHT22;13988;52.446;13.280;2023-12-20T13:09:31;5.80;99.90
26262;DHT22;13988;52.446;13.280;2023-12-20T13:11:57;5.90;99.90
26262;DHT22;13988;52.446;13.280;2023-12-20T13:14:22;5.90;99.90
26262;DHT22;13988;52.446;13.280;2023-12-20T13:16:48;5.90;99.90
26262;DHT22;13988;52.446;13.280;2023-12-20T13:19:14;5.90;99.90
26262;DHT22;13988;52.446;13.280;2023-12-20T13:21:40;5.90;99.90
26262;DHT22;13988;52.446;13.280;2023-12-20T13:24:05;5.90;99.90
26262;DHT22;13988;52.446;13.280;2023-12-20T13:26:32;5.80;99.90
26262;DHT22;13988;52.446;13.280;2023-12-20T13:28:58;5.80;99.90
26262;DHT22;13988;52.446;13.280;2023-12-20T13:31:24;5.80;99.90
26262;DHT22;13988;52.446;13.280;2023-12-20T13:33:49;5.70;99.90
26262;DHT22;13988;52.446;13.280;2023-12-20T13:36:16;5.50;99.90
26262;DHT22;13988;52.446;13.280;2023-12-20T13:38:43;5.40;99.90
26262;DHT22;13988;52.446;13.280;2023-12-20T13:41:08;5.30;99.90
26262;DHT22;13988;52.446;13.280;2023-12-20T13:43:34;5.40;99.90
26262;DHT22;13988;52.446;13.280;2023-12-20T13:46:00;5.30;99.90
26262;DHT22;13988;52.446;13.280;2023-12-20T13:48:26;5.30;99.90
26262;DHT22;13988;52.446;13.280;2023-12-20T13:50:52;5.20;99.90
26262;DHT22;13988;52.446;13.280;2023-12-20T13:53:17;5.20;99.90
26262;DHT22;13988;52.446;13.280;2023-12-20T13:55:44;5.10;99.90
26262;DHT22;13988;52.446;13.280;2023-12-20T13:58:10;5.00;99.90
26262;DHT22;13988;52.446;13.280;2023-12-20T14:00:36;5.00;99.90
26262;DHT22;13988;52.446;13.280;2023-12-20T14:03:03;4.90;99.90
26262;DHT22;13988;52.446;13.280;2023-12-20T14:05:29;4.90;99.90
26262;DHT22;13988;52.446;13.280;2023-12-20T14:07:55;4.80;99.90
26262;DHT22;13988;52.446;13.280;2023-12-20T14:10:23;4.80;99.90
26262;DHT22;13988;52.446;13.280;2023-12-20T14:12:48;4.70;99.90
26262;DHT22;13988;52.446;13.280;2023-12-20T14:15:14;4.70;99.90
26262;DHT22;13988;52.446;13.280;2023-12-20T14:17:40;4.60;99.90
26262;DHT22;13988;52.446;13.280;2023-12-20T14:20:09;4.60;99.90
26262;DHT22;13988;52.446;13.280;2023-12-20T14:22:36;4.60;99.90
26262;DHT22;13988;52.446;13.280;2023-12-20T14:25:04;4.60;99.90
26262;DHT22;13988;52.446;13.280;2023-12-20T14:27:30;4.60;99.90
26262;DHT22;13988;52.446;13.280;2023-12-20T14:29:55;4.60;99.90
26262;DHT22;13988;52.446;13.280;2023-12-20T14:32:21;4.50;99.90
26262;DHT22;13988;52.446;13.280;2023-12-20T14:34:47;4.60;99.90
26262;DHT22;13988;52.446;13.280;2023-12-20T14:37:13;4.60;99.90
26262;DHT22;13988;52.446;13.280;2023-12-20T14:39:39;4.60;99.90
26262;DHT22;13988;52.446;13.280;2023-12-20T14:42:10;4.60;99.90
26262;DHT22;13988;52.446;13.280;2023-12-20T14:44:42;4.70;99.90
26262;DHT22;13988;52.446;13.280;2023-12-20T14:47:08;4.70;99.90
26262;DHT22;13988;52.446;13.280;2023-12-20T14:49:33;4.70;99.90
26262;DHT22;13988;52.446;13.280;2023-12-20T14:51:59;4.70;99.90
26262;DHT22;13988;52.446;13.280;2023-12-20T14:54:26;4.80;99.90
26262;DHT22;13988;52.446;13.280;2023-12-20T14:56:51;4.80;99.90
26262;DHT22;13988;52.446;13.280;2023-12-20T14:59:17;4.70;99.90
26262;DHT22;13988;52.446;13.280;2023-12-20T15:01:44;4.80;99.90
26262;DHT22;13988;52.446;13.280;2023-12-20T15:04:09;4.80;99.90
26262;DHT22;13988;52.446;13.280;2023-12-20T15:06:36;4.70;99.90
26262;DHT22;13988;52.446;13.280;2023-12-20T15:09:01;4.70;99.90
26262;DHT22;13988;52.446;13.280;2023-12-20T15:11:34;4.70;99.90
26262;DHT22;13988;52.446;13.280;2023-12-20T15:14:00;4.80;99.90
26262;DHT22;13988;52.446;13.280;2023-12-20T15:16:26;4.90;99.90
26262;DHT22;13988;52.446;13.280;2023-12-20T15:18:52;4.90;99.90
26262;DHT22;13988;52.446;13.280;2023-12-20T15:21:19;4.80;99.90
26262;DHT22;13988;52.446;13.280;2023-12-20T15:23:45;4.70;99.90
26262;DHT22;13988;52.446;13.280;2023-12-20T15:26:19;4.80;99.90
26262;DHT22;13988;52.446;13.280;2023-12-20T15:28:45;4.70;99.90
26262;DHT22;13988;52.446;13.280;2023-12-20T15:31:11;4.70;99.90
26262;DHT22;13988;52.446;13.280;2023-12-20T15:33:37;4.80;99.90